Date,TemperatureHighF,TemperatureAvgF,TemperatureLowF,DewpointHighF,DewpointAvgF,DewpointLowF,HumidityHigh,HumidityAvg,HumidityLow,PressureMaxIn,PressureMinIn,WindSpeedMaxMPH,WindSpeedAvgMPH,GustSpeedMaxMPH,PrecipitationSumIn
2013-1-1,17,10,4,8,5,1,86,79,66,0.00,40.00,6,2,10,0.00
2013-1-2,21,14,6,8,2,-11,87,60,31,0.00,40.00,8,4,12,0.00
2013-1-3,27,18,10,1,-8,-20,45,31,13,0.00,40.00,6,2,9,0.00
2013-1-4,30,24,21,0,-10,-24,34,21,9,0.00,40.00,4,1,6,0.00
2013-1-5,34,25,18,11,4,-6,58,41,23,0.00,40.00,12,2,23,0.00
2013-1-6,38,32,25,4,-2,-10,35,23,14,0.00,40.00,11,4,23,0.00
2013-1-7,34,28,23,14,-2,-16,66,29,13,0.00,40.00,5,2,10,0.00
2013-1-8,32,26,21,23,20,10,92,80,57,0.00,40.00,9,4,21,0.00
2013-1-9,42,34,25,21,13,5,85,47,23,0.00,40.00,18,7,29,0.00
2013-1-10,39,26,13,23,15,8,95,67,27,0.00,40.00,29,13,45,0.00
2013-1-11,12,7,5,9,4,2,88,85,82,0.00,40.00,11,4,28,0.00
2013-1-12,6,2,-3,2,-2,-8,85,82,79,0.00,40.00,8,2,12,0.00
2013-1-13,3,-2,-5,-2,-7,-10,81,79,76,0.00,40.00,5,2,12,0.00
2013-1-14,1,-4,-7,-5,-8,-12,82,78,75,0.00,40.00,4,2,9,0.00
2013-1-15,15,6,-3,9,2,-8,87,83,74,0.00,40.00,5,2,14,0.00
2013-1-16,31,22,9,14,7,-3,90,55,25,0.00,40.00,10,6,24,0.00
2013-1-17,42,32,29,9,3,-3,35,28,22,0.00,40.00,8,3,14,0.00
2013-1-18,38,31,28,9,1,-7,39,27,18,0.00,40.00,3,1,7,0.00
2013-1-19,36,31,26,9,2,-4,37,28,20,0.00,40.00,7,2,11,0.00
2013-1-20,37,29,26,8,0,-11,39,27,15,0.00,40.00,5,2,9,0.00
2013-1-21,42,32,27,10,3,-10,38,28,16,0.00,40.00,4,2,7,0.00
2013-1-22,50,38,31,-1,-7,-13,23,14,8,0.00,40.00,4,2,7,0.00
2013-1-23,46,42,40,15,3,-9,35,20,10,0.00,40.00,15,6,25,0.00
2013-1-24,40,34,31,32,27,14,95,77,35,0.00,40.00,16,4,23,0.00
2013-1-25,37,33,30,30,28,23,95,81,63,0.00,40.00,9,3,15,0.00
2013-1-26,38,34,31,30,27,24,94,76,65,0.00,40.00,17,4,23,0.00
2013-1-27,32,28,18,29,23,12,93,84,69,0.00,40.00,14,6,33,0.00
2013-1-28,18,13,10,14,7,1,89,74,57,0.00,40.00,8,4,18,0.00
2013-1-29,17,13,9,11,7,4,87,76,66,0.00,40.00,13,5,28,0.00
2013-1-30,27,22,16,22,17,8,93,81,70,0.00,40.00,21,7,48,0.00
2013-1-31,33,27,24,20,19,18,79,71,54,0.00,40.00,8,4,18,0.00
2013-2-1,33,28,23,21,18,11,80,66,45,0.00,40.00,7,4,18,0.00
2013-2-2,33,27,22,16,10,-1,74,49,24,0.00,40.00,5,1,7,0.00
2013-2-3,34,30,25,8,2,-5,44,30,22,0.00,40.00,6,2,8,0.00
2013-2-4,36,28,24,13,8,3,51,42,32,0.00,40.00,6,2,12,0.00
2013-2-5,43,36,27,16,11,4,46,34,22,0.00,40.00,8,2,14,0.00
2013-2-6,38,30,20,16,10,4,69,45,23,0.00,40.00,9,4,19,0.00
2013-2-7,36,27,19,12,2,-15,68,36,15,0.00,40.00,18,8,26,0.00
2013-2-8,28,24,19,22,16,11,92,71,54,0.00,40.00,22,12,31,0.00
2013-2-9,20,17,14,17,14,9,93,88,70,0.00,40.00,5,2,10,0.00
2013-2-10,19,14,12,13,10,8,89,84,71,0.00,40.00,6,2,10,0.00
2013-2-11,17,11,7,9,3,-9,89,71,39,0.00,40.00,7,3,14,0.00
2013-2-12,22,15,9,16,9,-1,90,76,58,0.00,40.00,9,4,20,0.00
2013-2-13,32,22,16,20,17,14,92,81,55,0.00,40.00,7,3,17,0.00
2013-2-14,31,24,19,20,14,6,86,66,41,0.00,40.00,14,6,28,0.00
2013-2-15,28,23,18,18,14,11,77,68,56,0.00,40.00,7,3,14,0.00
2013-2-16,38,32,23,14,7,-12,68,37,11,0.00,40.00,8,2,15,0.00
2013-2-17,38,28,15,18,6,-10,72,43,12,0.00,40.00,21,6,39,0.00
2013-2-18,27,19,13,10,4,-19,72,55,11,0.00,40.00,9,4,19,0.00
2013-2-19,32,27,22,7,2,-7,43,34,23,0.00,40.00,23,14,36,0.00
2013-2-20,30,25,22,19,14,5,78,64,42,0.00,40.00,11,4,19,0.00
2013-2-21,22,17,12,16,10,3,90,72,58,0.00,40.00,7,3,15,0.00
2013-2-22,22,16,10,11,6,2,87,67,45,0.00,40.00,8,3,18,0.00
2013-2-23,27,17,11,18,11,5,89,76,60,0.00,40.00,14,6,37,0.00
2013-2-24,21,14,10,11,6,4,83,71,57,0.00,40.00,13,6,26,0.00
2013-2-25,26,16,10,12,5,-2,84,61,47,0.00,40.00,8,2,15,0.00
2013-2-26,19,15,11,12,6,1,88,67,53,0.00,40.00,13,7,25,0.00
2013-2-27,23,14,9,7,3,-1,72,60,33,0.00,40.00,6,2,11,0.00
2013-2-28,31,24,16,17,7,0,64,49,38,0.00,40.00,6,3,15,0.00
2013-3-1,37,31,26,25,22,15,83,71,55,0.00,40.00,10,5,26,0.00
2013-3-2,43,36,28,22,18,7,77,49,24,0.00,40.00,9,1,14,0.00
2013-3-3,41,34,29,31,26,11,94,77,28,0.00,40.00,9,2,22,0.00
2013-3-4,29,21,16,27,10,0,93,63,35,0.00,40.00,10,4,24,0.00
2013-3-5,42,30,16,10,-4,-23,51,22,11,0.00,40.00,19,8,26,0.00
2013-3-6,42,36,28,28,16,10,95,45,34,0.00,40.00,15,9,32,0.00
2013-3-7,40,30,24,27,23,9,95,78,26,0.00,40.00,11,3,22,0.00
2013-3-8,35,30,28,28,26,23,96,84,59,0.00,40.00,12,4,20,0.00
2013-3-9,33,27,22,27,21,9,96,80,56,0.00,40.00,10,6,21,0.00
2013-3-10,39,28,21,15,9,4,62,46,30,0.00,40.00,9,4,18,0.00
2013-3-11,37,32,28,25,16,6,72,51,37,0.00,40.00,10,4,24,0.00
2013-3-12,40,35,30,27,25,20,85,67,48,0.00,40.00,10,4,26,0.00
2013-3-13,49,42,35,26,23,12,61,47,27,0.00,40.00,7,2,11,0.00
2013-3-14,59,51,45,21,16,10,31,24,17,0.00,40.00,7,2,17,0.00
2013-3-15,55,49,43,22,16,13,38,26,18,0.00,40.00,10,4,21,0.00
2013-3-16,44,40,36,21,15,4,50,35,20,0.00,40.00,7,3,17,0.00
2013-3-17,40,30,23,28,16,5,91,59,33,0.00,40.00,20,9,43,0.00
2013-3-18,34,27,19,17,12,8,91,55,35,0.00,40.00,18,5,37,0.00
2013-3-19,40,31,23,13,-6,-27,52,22,7,0.00,40.00,9,4,19,0.00
2013-3-20,38,35,32,33,23,3,93,66,25,0.00,40.00,13,5,22,0.00
2013-3-21,38,27,19,29,13,-1,88,58,32,0.00,40.00,16,6,36,0.00
2013-3-22,19,16,12,14,8,2,89,71,47,0.00,40.00,14,5,26,0.00
2013-3-23,23,14,10,12,6,-3,86,69,43,0.00,40.00,10,6,20,0.00
2013-3-24,25,15,10,13,4,-5,86,62,43,0.00,40.00,7,3,14,0.00
2013-3-25,37,23,12,18,9,-6,74,54,38,0.00,40.00,7,2,10,0.00
2013-3-26,45,37,30,27,17,12,85,45,26,0.00,40.00,8,4,21,0.00
2013-3-27,50,40,30,23,18,12,74,42,25,0.00,40.00,9,3,16,0.00
2013-3-28,53,44,39,23,18,12,44,34,24,0.00,40.00,11,4,21,0.00
2013-3-29,52,43,35,31,25,21,85,49,30,0.00,40.00,9,5,18,0.00
2013-3-30,50,44,40,26,21,-100,50,42,26,0.00,40.00,9,4,20,0.00
2013-3-31,55,44,35,25,16,3,56,35,11,0.00,40.00,12,2,19,0.00
2013-4-1,43,36,32,33,30,23,94,81,45,0.00,40.00,15,4,24,0.00
2013-4-2,46,35,30,32,29,27,96,82,51,0.00,40.00,9,4,17,0.00
2013-4-3,52,42,36,30,25,17,73,52,25,0.00,40.00,7,3,17,0.00
2013-4-4,54,47,42,25,21,19,43,35,27,0.00,40.00,12,5,25,0.00
2013-4-5,47,40,33,35,27,18,93,63,34,0.00,40.00,14,6,27,0.00
2013-4-6,45,38,34,32,23,18,85,55,37,0.00,40.00,9,3,14,0.00
2013-4-7,45,39,34,29,22,11,75,52,26,0.00,40.00,8,4,24,0.00
2013-4-8,42,32,18,30,25,13,96,79,31,0.00,40.00,11,4,22,0.00
2013-4-9,21,15,11,17,10,7,92,82,64,0.00,40.00,9,6,21,0.00
2013-4-10,38,27,15,26,17,9,79,64,52,0.00,40.00,13,6,25,0.00
2013-4-11,41,34,29,31,27,18,96,76,45,0.00,40.00,8,4,17,0.00
2013-4-12,46,37,30,24,19,6,67,49,25,0.00,40.00,7,4,17,0.00
2013-4-13,42,36,25,31,20,6,92,57,24,0.00,40.00,13,5,30,0.00
2013-4-14,34,25,18,18,3,-7,91,40,20,0.00,40.00,13,6,30,0.00
2013-4-15,31,25,20,26,21,16,95,85,63,0.00,40.00,7,3,15,0.00
2013-4-16,25,22,18,21,17,9,93,82,68,0.00,40.00,8,4,15,0.00
2013-4-17,28,19,11,14,9,4,86,67,43,0.00,40.00,17,6,27,0.00
2013-4-18,35,24,16,6,1,-9,60,36,27,0.00,40.00,11,7,33,0.00
2013-4-19,44,32,26,29,17,4,92,52,34,0.00,40.00,8,3,19,0.00
2013-4-20,40,34,30,31,26,22,94,76,56,0.00,40.00,10,4,21,0.00
2013-4-21,48,39,31,24,19,13,62,44,31,0.00,40.00,8,4,16,0.00
2013-4-22,39,33,24,27,20,9,84,60,36,0.00,40.00,11,6,24,0.00
2013-4-23,39,26,16,18,8,-7,92,54,13,0.00,40.00,9,4,18,0.00
2013-4-24,47,35,26,11,1,-7,33,24,12,0.00,40.00,5,3,13,0.00
2013-4-25,51,40,33,16,8,-10,36,25,11,0.00,40.00,9,4,18,0.00
2013-4-26,54,45,38,16,9,1,29,23,16,0.00,40.00,10,5,17,0.00
2013-4-27,58,49,42,18,14,4,34,24,15,0.00,40.00,9,4,19,0.00
2013-4-28,60,54,49,24,20,17,31,26,21,0.00,40.00,9,4,23,0.00
2013-4-29,56,50,43,24,20,14,40,30,25,0.00,40.00,10,5,23,0.00
2013-4-30,49,41,28,26,14,-3,52,34,20,0.00,40.00,11,6,29,0.00
2013-5-1,34,27,20,19,8,-3,75,45,25,0.00,40.00,11,6,26,0.00
2013-5-2,49,35,25,14,6,0,60,32,13,0.00,40.00,7,4,14,0.00
2013-5-3,57,45,36,16,10,0,36,24,12,0.00,40.00,6,3,18,0.00
2013-5-4,53,45,38,27,13,1,56,27,16,0.00,40.00,12,4,28,0.00
2013-5-5,56,44,32,29,25,19,75,49,25,0.00,40.00,12,4,21,0.00
2013-5-6,53,44,39,35,28,23,83,52,31,0.00,40.00,12,6,21,0.00
2013-5-7,50,40,35,35,32,26,92,73,42,0.00,40.00,11,4,18,0.00
2013-5-16,53,52,52,33,33,33,48,47,45,0.00,40.00,7,7,12,0.00
2013-5-28,39,38,35,37,35,30,94,88,82,0.00,40.00,10,5,22,0.00
2013-5-29,49,40,34,34,30,26,92,68,40,0.00,40.00,8,4,19,0.00
2013-5-30,50,43,33,33,27,22,91,54,37,0.00,40.00,9,6,25,0.00
2013-5-31,54,45,39,26,18,8,57,35,20,0.00,40.00,11,6,24,0.00
2013-6-1,62,52,42,30,19,10,34,27,15,0.00,40.00,8,4,15,0.00
2013-6-2,74,64,53,26,19,12,29,17,11,0.00,40.00,9,5,24,0.00
2013-6-3,66,56,49,33,15,-2,43,22,7,0.00,40.00,15,6,28,0.00
2013-6-4,66,57,50,27,19,8,36,23,15,0.00,40.00,8,4,24,0.00
2013-6-5,67,55,45,34,27,20,52,35,17,0.00,40.00,7,4,15,0.00
2013-6-6,71,62,54,34,26,17,35,26,15,0.00,40.00,8,5,21,0.00
2013-6-7,71,65,59,37,30,24,35,27,22,0.00,40.00,9,5,27,0.00
2013-6-8,72,65,57,36,27,18,44,24,16,0.00,40.00,11,6,27,0.00
2013-6-9,77,68,60,35,27,20,28,21,15,0.00,40.00,12,5,17,0.00
2013-6-10,78,72,66,31,23,12,23,16,10,0.00,40.00,11,6,25,0.00
2013-6-11,71,64,59,24,19,12,23,17,13,0.00,40.00,10,5,23,0.00
2013-6-12,70,65,59,34,25,19,29,22,14,0.00,40.00,14,7,34,0.00
2013-6-13,72,65,49,36,26,15,46,23,11,0.00,40.00,13,9,31,0.00
2013-6-14,60,52,45,35,27,12,49,37,21,0.00,40.00,8,4,16,0.00
2013-6-15,72,56,44,33,22,12,44,27,12,0.00,40.00,9,4,19,0.00
2013-6-16,74,67,60,24,14,4,18,12,8,0.00,40.00,11,6,22,0.00
2013-6-17,76,66,57,32,15,4,32,14,8,0.00,40.00,13,4,22,0.00
2013-6-18,74,68,62,27,14,3,24,12,8,0.00,40.00,12,5,26,0.00
2013-6-19,66,60,44,26,16,7,29,18,9,0.00,40.00,14,8,36,0.00
2013-6-20,63,46,40,30,19,13,42,33,19,0.00,40.00,8,4,15,0.00
2013-6-22,64,56,49,32,28,18,49,34,21,0.00,40.00,16,6,25,0.00
2013-6-23,70,60,49,31,23,11,39,24,15,0.00,40.00,15,6,25,0.00
2013-6-24,67,60,49,40,28,19,68,31,20,0.00,40.00,11,7,29,0.00
2013-6-25,67,57,48,43,38,32,74,52,30,0.00,40.00,9,4,19,0.00
2013-6-26,78,69,61,44,38,32,44,32,24,0.00,40.00,11,6,26,0.00
2013-6-27,84,74,64,47,39,33,44,29,21,0.00,40.00,6,3,13,0.00
2013-6-28,87,76,67,44,34,29,34,22,13,0.00,40.00,9,4,17,0.00
2013-6-29,86,76,67,42,33,25,33,21,14,0.00,40.00,7,4,19,0.00
2013-6-30,85,73,61,47,36,22,51,28,13,0.00,40.00,9,4,18,0.00
2013-7-1,86,75,66,44,34,26,38,23,11,0.00,40.00,10,5,16,0.00
2013-7-2,84,73,64,43,35,27,40,25,14,0.00,40.00,9,4,23,0.00
2013-7-3,84,74,64,45,40,28,37,29,18,0.00,40.00,7,4,13,0.00
2013-7-4,77,66,53,57,48,40,94,57,31,0.00,40.00,9,4,17,0.00
2013-7-5,73,62,53,55,49,43,92,62,36,0.00,40.00,14,5,32,0.00
2013-7-6,71,60,53,52,45,39,80,58,39,0.00,40.00,13,4,26,0.00
2013-7-7,74,63,55,51,44,38,60,48,29,0.00,40.00,26,7,37,0.00
2013-7-8,74,64,56,50,40,-100,70,44,27,0.00,40.00,11,4,20,0.00
2013-7-9,81,72,65,45,32,17,42,23,11,0.00,40.00,11,4,18,0.00
2013-7-10,83,72,64,45,23,-100,37,16,10,0.00,40.00,10,4,18,0.00
2013-7-11,76,68,55,47,33,13,72,32,9,0.00,40.00,8,4,23,0.00
2013-7-12,65,58,52,53,49,44,93,74,51,0.00,40.00,10,4,15,0.00
2013-7-13,70,63,55,53,48,41,82,58,42,0.00,40.00,10,3,24,0.00
2013-7-14,76,65,52,54,44,36,81,50,24,0.00,40.00,7,2,10,0.00
2013-7-15,79,68,62,51,42,38,55,39,25,0.00,40.00,13,4,19,0.00
2013-7-16,74,65,55,55,47,42,91,54,39,0.00,40.00,12,4,28,0.00
2013-7-17,78,65,58,60,50,44,79,59,39,0.00,40.00,15,4,25,0.00
2013-7-18,81,70,58,55,44,37,66,41,22,0.00,40.00,7,4,15,0.00
2013-7-19,83,73,67,48,33,24,44,24,12,0.00,40.00,8,4,15,0.00
2013-7-20,83,74,68,41,23,-100,31,15,11,0.00,40.00,7,4,17,0.00
2013-7-21,84,75,69,39,24,17,28,15,10,0.00,40.00,7,4,19,0.00
2013-7-22,83,74,68,40,24,11,33,16,8,0.00,40.00,7,4,21,0.00
2013-7-23,85,74,67,34,23,15,23,14,10,0.00,40.00,7,4,15,0.00
2013-7-24,71,68,63,45,31,13,42,28,11,0.00,40.00,17,6,30,0.00
2013-7-25,80,70,63,47,38,33,47,31,19,0.00,40.00,9,4,15,0.00
2013-7-26,82,71,64,44,31,22,40,23,13,0.00,40.00,8,4,19,0.00
2013-7-27,71,63,56,52,42,22,81,51,15,0.00,40.00,7,3,15,0.00
2013-7-28,71,60,51,50,46,34,78,61,33,0.00,40.00,13,4,25,0.00
2013-7-29,68,61,54,48,41,33,66,49,36,0.00,40.00,11,3,16,0.00
2013-7-30,77,67,57,44,36,26,54,34,18,0.00,40.00,10,4,19,0.00
2013-7-31,80,71,65,40,32,24,35,23,13,0.00,40.00,11,5,19,0.00
2013-8-1,77,68,60,50,40,28,66,39,21,0.00,40.00,22,11,37,0.00
2013-8-2,77,67,58,49,31,19,64,29,12,0.00,40.00,19,6,30,0.00
2013-8-3,78,70,63,29,24,20,21,17,12,0.00,40.00,12,6,21,0.00
2013-8-4,79,70,65,33,29,24,26,21,16,0.00,40.00,10,6,19,0.00
2013-8-5,77,69,63,40,33,27,35,26,18,0.00,40.00,12,4,22,0.00
2013-8-6,78,70,65,40,29,18,35,22,12,0.00,40.00,12,5,18,0.00
2013-8-7,76,66,58,38,30,19,46,26,15,0.00,40.00,21,6,33,0.00
2013-8-8,72,61,53,44,35,30,69,38,20,0.00,40.00,23,4,33,0.00
2013-8-9,73,61,54,40,32,24,54,34,17,0.00,40.00,28,10,48,0.00
2013-8-10,75,65,61,37,32,22,37,29,13,0.00,40.00,19,12,31,0.00
2013-8-11,75,64,56,39,33,28,44,31,17,0.00,40.00,21,9,31,0.00
2013-8-21,75,66,59,49,43,37,60,45,26,0.00,40.00,9,3,15,0.00
2013-8-22,71,64,59,47,43,39,61,47,34,0.00,40.00,11,5,27,0.00
2013-8-23,63,57,52,50,45,39,84,65,42,0.00,40.00,22,8,35,0.00
2013-8-24,70,57,52,49,41,-100,85,60,30,0.00,40.00,13,4,23,0.00
2013-8-25,67,60,53,48,44,41,70,57,40,0.00,40.00,17,9,28,0.00
2013-8-26,59,57,53,50,47,44,78,69,61,0.00,40.00,23,9,34,0.00
2013-8-27,61,58,56,49,48,46,76,68,64,0.00,40.00,17,6,28,0.00
2013-9-4,73,65,60,51,46,41,63,50,37,0.00,40.00,0,0,0,0.00
2013-9-5,77,67,57,48,43,38,67,43,24,0.00,40.00,0,0,0,0.00
2013-9-6,78,68,60,45,39,30,56,36,17,0.00,40.00,0,0,0,0.00
2013-9-7,70,58,50,49,43,-100,95,61,39,0.00,40.00,0,0,0,0.00
2013-9-8,55,52,48,50,46,41,92,79,61,0.00,40.00,10,1,12,0.00
2013-9-9,64,57,52,46,42,34,70,56,33,0.00,40.00,0,0,0,0.00
2013-9-10,60,54,50,49,44,39,78,67,56,0.00,40.00,0,0,0,0.00
2013-9-11,61,54,49,52,48,45,94,80,60,0.00,40.00,27,4,29,0.00
2013-9-12,60,52,46,48,46,42,94,79,58,0.00,40.00,0,0,0,0.00
2013-9-13,53,50,47,52,48,45,95,92,83,0.00,40.00,5,0,6,0.00
2013-9-14,53,49,48,50,44,-100,93,85,79,0.00,40.00,0,0,0,0.00
2013-9-15,63,53,47,49,46,44,91,76,54,0.00,40.00,0,0,0,0.00
2013-9-16,72,61,54,49,42,36,69,52,27,0.00,40.00,0,0,0,0.00
2013-9-17,65,59,55,50,42,32,73,55,30,0.00,40.00,0,0,0,0.00
2013-9-18,62,62,62,33,33,33,32,32,32,0.00,40.00,0,0,0,0.00
2013-10-27,53,47,43,26,16,7,49,28,19,0.00,40.00,0,0,0,0.00
2013-10-28,45,37,30,30,24,-100,93,66,33,0.00,40.00,0,0,0,0.00
2013-10-29,33,29,27,28,26,22,93,87,77,0.00,40.00,0,0,0,0.00
2013-10-30,30,28,26,26,23,20,94,83,74,0.00,40.00,0,0,0,0.00
2013-10-31,35,30,26,27,24,22,87,79,65,0.00,40.00,0,0,0,0.00
2013-11-1,40,36,32,29,25,18,85,66,45,0.00,40.00,0,0,0,0.00
2013-11-2,52,42,36,19,8,-100,48,26,13,0.00,40.00,0,0,0,0.00
2013-11-3,45,43,42,13,13,12,30,29,26,0.00,40.00,0,0,0,0.00
2013-11-4,21,21,21,18,18,18,88,88,88,0.00,40.00,0,0,0,0.00
2013-11-21,31,24,16,30,22,14,96,93,88,0.00,40.00,6,3,11,0.00
2013-11-22,19,14,7,13,6,-2,87,72,48,0.00,40.00,9,3,12,0.00
2013-11-23,27,19,12,13,2,-100,67,51,42,0.00,40.00,6,2,11,0.00
2013-11-24,32,25,20,23,16,3,91,70,33,0.00,40.00,7,2,11,0.00
2013-11-25,39,30,26,18,11,3,54,44,33,0.00,40.00,6,3,10,0.00
2013-11-26,45,37,31,15,14,10,50,38,27,0.00,40.00,7,2,9,0.00
2013-11-27,46,40,37,13,9,3,35,28,21,0.00,40.00,3,1,5,0.00
2013-12-26,36,31,27,14,-3,-11,44,23,14,0.00,40.00,5,2,8,0.00
2013-12-27,43,36,31,18,15,10,54,42,27,0.00,40.00,4,1,6,0.00
2013-12-28,39,30,17,16,9,-100,84,48,31,0.00,40.00,6,3,13,0.00
2013-12-29,25,19,17,12,9,3,78,62,45,0.00,40.00,9,4,14,0.00
2013-12-30,31,26,19,19,9,1,66,50,37,0.00,40.00,5,2,6,0.00
2013-12-31,35,31,28,27,21,17,93,65,50,0.00,40.00,7,3,22,0.00
2014-1-1,30,27,24,21,18,14,75,67,57,0.00,40.00,12,4,32,0.00
2014-1-2,36,30,25,15,11,5,63,43,28,0.00,40.00,4,1,6,0.00